sensor_id;sensor_type;location;lat;lon;timestamp;temperature;humidity
53599;DHT22;39485;45.702;11.364;2022-11-15T00:00:54;8.80;99.90
53599;DHT22;39485;45.702;11.364;2022-11-15T00:03:24;8.80;99.90
53599;DHT22;39485;45.702;11.364;2022-11-15T00:05:51;8.80;99.90
53599;DHT22;39485;45.702;11.364;2022-11-15T00:08:17;8.70;99.90
53599;DHT22;39485;45.702;11.364;2022-11-15T00:10:43;8.70;99.90
53599;DHT22;39485;45.702;11.364;2022-11-15T00:13:11;8.70;99.90
53599;DHT22;39485;45.702;11.364;2022-11-15T00:15:38;8.70;99.90
53599;DHT22;39485;45.702;11.364;2022-11-15T00:18:05;8.70;99.90
53599;DHT22;39485;45.702;11.364;2022-11-15T00:20:34;8.70;99.90
53599;DHT22;39485;45.702;11.364;2022-11-15T00:23:00;8.70;99.90
53599;DHT22;39485;45.702;11.364;2022-11-15T00:25:28;8.70;99.90
53599;DHT22;39485;45.702;11.364;2022-11-15T00:27:57;8.70;99.90
53599;DHT22;39485;45.702;11.364;2022-11-15T00:30:23;8.70;99.90
53599;DHT22;39485;45.702;11.364;2022-11-15T00:32:49;8.70;99.90
53599;DHT22;39485;45.702;11.364;2022-11-15T00:35:15;8.80;99.90
53599;DHT22;39485;45.702;11.364;2022-11-15T00:37:40;8.80;99.90
53599;DHT22;39485;45.702;11.364;2022-11-15T00:40:07;8.80;99.90
53599;DHT22;39485;45.702;11.364;2022-11-15T00:42:33;8.70;99.90
53599;DHT22;39485;45.702;11.364;2022-11-15T00:44:59;8.70;99.90
53599;DHT22;39485;45.702;11.364;2022-11-15T00:47:24;8.70;99.90
53599;DHT22;39485;45.702;11.364;2022-11-15T00:49:50;8.70;99.90
53599;DHT22;39485;45.702;11.364;2022-11-15T00:52:16;8.60;99.90
53599;DHT22;39485;45.702;11.364;2022-11-15T00:54:42;8.60;99.90
53599;DHT22;39485;45.702;11.364;2022-11-15T00:57:08;8.60;99.90
53599;DHT22;39485;45.702;11.364;2022-11-15T00:59:34;8.60;99.90
53599;DHT22;39485;45.702;11.364;2022-11-15T01:02:00;8.60;99.90
53599;DHT22;39485;45.702;11.364;2022-11-15T01:04:26;8.50;99.90
53599;DHT22;39485;45.702;11.364;2022-11-15T01:06:52;8.50;99.90
53599;DHT22;39485;45.702;11.364;2022-11-15T01:09:18;8.50;99.90
53599;DHT22;39485;45.702;11.364;2022-11-15T01:11:43;8.50;99.90
53599;DHT22;39485;45.702;11.364;2022-11-15T01:14:09;8.40;99.90
53599;DHT22;39485;45.702;11.364;2022-11-15T01:16:35;8.40;99.90
53599;DHT22;39485;45.702;11.364;2022-11-15T01:19:01;8.40;99.90
53599;DHT22;39485;45.702;11.364;2022-11-15T01:21:27;8.40;99.90
53599;DHT22;39485;45.702;11.364;2022-11-15T01:23:54;8.40;99.90
53599;DHT22;39485;45.702;11.364;2022-11-15T01:26:21;8.40;99.90
53599;DHT22;39485;45.702;11.364;2022-11-15T01:28:47;8.30;99.90
53599;DHT22;39485;45.702;11.364;2022-11-15T01:31:15;8.30;99.90
53599;DHT22;39485;45.702;11.364;2022-11-15T01:33:41;8.30;99.90
53599;DHT22;39485;45.702;11.364;2022-11-15T01:36:17;8.30;99.90
53599;DHT22;39485;45.702;11.364;2022-11-15T01:38:43;8.30;99.90
53599;DHT22;39485;45.702;11.364;2022-11-15T01:41:17;8.30;99.90
53599;DHT22;39485;45.702;11.364;2022-11-15T01:43:44;8.30;99.90
53599;DHT22;39485;45.702;11.364;2022-11-15T01:46:47;8.30;99.90
53599;DHT22;39485;45.702;11.364;2022-11-15T01:49:17;8.30;99.90
53599;DHT22;39485;45.702;11.364;2022-11-15T01:51:45;8.30;99.90
53599;DHT22;39485;45.702;11.364;2022-11-15T01:54:16;8.30;99.90
53599;DHT22;39485;45.702;11.364;2022-11-15T01:56:56;8.20;99.90
53599;DHT22;39485;45.702;11.364;2022-11-15T01:59:23;8.20;99.90
53599;DHT22;39485;45.702;11.364;2022-11-15T02:01:49;8.20;99.90
53599;DHT22;39485;45.702;11.364;2022-11-15T02:04:26;8.20;99.90
53599;DHT22;39485;45.702;11.364;2022-11-15T02:06:53;8.20;99.90
53599;DHT22;39485;45.702;11.364;2022-11-15T02:09:19;8.20;99.90
53599;DHT22;39485;45.702;11.364;2022-11-15T02:11:46;8.20;99.90
53599;DHT22;39485;45.702;11.364;2022-11-15T02:14:14;8.20;99.90
53599;DHT22;39485;45.702;11.364;2022-11-15T02:29:46;8.00;99.90
53599;DHT22;39485;45.702;11.364;2022-11-15T02:32:19;8.10;99.90
53599;DHT22;39485;45.702;11.364;2022-11-15T02:37:42;8.00;99.90
53599;DHT22;39485;45.702;11.364;2022-11-15T02:42:54;8.00;99.90
53599;DHT22;39485;45.702;11.364;2022-11-15T02:45:44;8.00;99.90
53599;DHT22;39485;45.702;11.364;2022-11-15T02:48:11;8.00;99.90
53599;DHT22;39485;45.702;11.364;2022-11-15T02:50:38;8.00;99.90
53599;DHT22;39485;45.702;11.364;2022-11-15T02:53:04;7.90;99.90
53599;DHT22;39485;45.702;11.364;2022-11-15T02:55:34;7.90;99.90
53599;DHT22;39485;45.702;11.364;2022-11-15T03:03:41;7.90;99.90
53599;DHT22;39485;45.702;11.364;2022-11-15T03:09:09;7.80;99.90
53599;DHT22;39485;45.702;11.364;2022-11-15T03:11:46;7.80;99.90
53599;DHT22;39485;45.702;11.364;2022-11-15T03:15:08;7.80;99.90
53599;DHT22;39485;45.702;11.364;2022-11-15T03:19:47;7.70;99.90
53599;DHT22;39485;45.702;11.364;2022-11-15T03:22:17;7.70;99.90
53599;DHT22;39485;45.702;11.364;2022-11-15T03:24:46;7.70;99.90
53599;DHT22;39485;45.702;11.364;2022-11-15T03:27:17;7.70;99.90
53599;DHT22;39485;45.702;11.364;2022-11-15T03:29:48;7.70;99.90
53599;DHT22;39485;45.702;11.364;2022-11-15T03:32:28;7.60;99.90
53599;DHT22;39485;45.702;11.364;2022-11-15T03:37:59;7.70;99.90
53599;DHT22;39485;45.702;11.364;2022-11-15T03:40:40;7.60;99.90
53599;DHT22;39485;45.702;11.364;2022-11-15T03:43:24;7.60;99.90
53599;DHT22;39485;45.702;11.364;2022-11-15T03:46:05;7.60;99.90
53599;DHT22;39485;45.702;11.364;2022-11-15T03:48:42;7.60;99.90
53599;DHT22;39485;45.702;11.364;2022-11-15T03:51:09;7.60;99.90
53599;DHT22;39485;45.702;11.364;2022-11-15T03:53:35;7.50;99.90
53599;DHT22;39485;45.702;11.364;2022-11-15T03:56:01;7.50;99.90
53599;DHT22;39485;45.702;11.364;2022-11-15T03:58:27;7.50;99.90
53599;DHT22;39485;45.702;11.364;2022-11-15T04:00:52;7.50;99.90
53599;DHT22;39485;45.702;11.364;2022-11-15T04:03:18;7.50;99.90
53599;DHT22;39485;45.702;11.364;2022-11-15T04:05:44;7.40;99.90
53599;DHT22;39485;45.702;11.364;2022-11-15T04:08:09;7.40;99.90
53599;DHT22;39485;45.702;11.364;2022-11-15T04:10:35;7.50;99.90
53599;DHT22;39485;45.702;11.364;2022-11-15T04:13:02;7.50;99.90
53599;DHT22;39485;45.702;11.364;2022-11-15T04:15:28;7.50;99.90
53599;DHT22;39485;45.702;11.364;2022-11-15T04:17:56;7.50;99.90
53599;DHT22;39485;45.702;11.364;2022-11-15T04:20:30;7.40;99.90
53599;DHT22;39485;45.702;11.364;2022-11-15T04:23:22;7.40;99.90
53599;DHT22;39485;45.702;11.364;2022-11-15T04:26:12;7.40;99.90
53599;DHT22;39485;45.702;11.364;2022-11-15T04:28:38;7.50;99.90
53599;DHT22;39485;45.702;11.364;2022-11-15T04:31:23;7.40;99.90
53599;DHT22;39485;45.702;11.364;2022-11-15T04:33:48;7.40;99.90
53599;DHT22;39485;45.702;11.364;2022-11-15T04:36:14;7.40;99.90
53599;DHT22;39485;45.702;11.364;2022-11-15T04:38:58;7.40;99.90
53599;DHT22;39485;45.702;11.364;2022-11-15T04:41:24;7.40;99.90
53599;DHT22;39485;45.702;11.364;2022-11-15T04:43:49;7.40;99.90
53599;DHT22;39485;45.702;11.364;2022-11-15T04:46:15;7.40;99.90
53599;DHT22;39485;45.702;11.364;2022-11-15T04:48:41;7.40;99.90
53599;DHT22;39485;45.702;11.364;2022-11-15T04:51:06;7.40;99.90
53599;DHT22;39485;45.702;11.364;2022-11-15T04:53:32;7.40;99.90
53599;DHT22;39485;45.702;11.364;2022-11-15T04:55:57;7.40;99.90
53599;DHT22;39485;45.702;11.364;2022-11-15T04:58:23;7.40;99.90
53599;DHT22;39485;45.702;11.364;2022-11-15T05:00:49;7.40;99.90
53599;DHT22;39485;45.702;11.364;2022-11-15T05:03:14;7.40;99.90
53599;DHT22;39485;45.702;11.364;2022-11-15T05:05:59;7.40;99.90
53599;DHT22;39485;45.702;11.364;2022-11-15T05:08:25;7.40;99.90
53599;DHT22;39485;45.702;11.364;2022-11-15T05:10:51;7.40;99.90
53599;DHT22;39485;45.702;11.364;2022-11-15T05:13:17;7.40;99.90
53599;DHT22;39485;45.702;11.364;2022-11-15T05:15:42;7.40;99.90
53599;DHT22;39485;45.702;11.364;2022-11-15T05:18:08;7.40;99.90
53599;DHT22;39485;45.702;11.364;2022-11-15T05:20:34;7.40;99.90
53599;DHT22;39485;45.702;11.364;2022-11-15T05:22:59;7.40;99.90
53599;DHT22;39485;45.702;11.364;2022-11-15T05:25:25;7.40;99.90
53599;DHT22;39485;45.702;11.364;2022-11-15T05:27:51;7.30;99.90
53599;DHT22;39485;45.702;11.364;2022-11-15T05:30:17;7.30;99.90
53599;DHT22;39485;45.702;11.364;2022-11-15T05:32:44;7.30;99.90
53599;DHT22;39485;45.702;11.364;2022-11-15T05:35:12;7.30;99.90
53599;DHT22;39485;45.702;11.364;2022-11-15T05:37:40;7.30;99.90
53599;DHT22;39485;45.702;11.364;2022-11-15T05:40:07;7.30;99.90
53599;DHT22;39485;45.702;11.364;2022-11-15T05:42:33;7.30;99.90
53599;DHT22;39485;45.702;11.364;2022-11-15T05:44:59;7.30;99.90
53599;DHT22;39485;45.702;11.364;2022-11-15T05:47:28;7.30;99.90
53599;DHT22;39485;45.702;11.364;2022-11-15T05:49:55;7.30;99.90
53599;DHT22;39485;45.702;11.364;2022-11-15T05:52:25;7.30;99.90
53599;DHT22;39485;45.702;11.364;2022-11-15T05:54:53;7.30;99.90
53599;DHT22;39485;45.702;11.364;2022-11-15T05:57:19;7.30;99.90
53599;DHT22;39485;45.702;11.364;2022-11-15T05:59:45;7.30;99.90
53599;DHT22;39485;45.702;11.364;2022-11-15T06:02:11;7.30;99.90
53599;DHT22;39485;45.702;11.364;2022-11-15T06:04:37;7.30;99.90
53599;DHT22;39485;45.702;11.364;2022-11-15T06:07:02;7.30;99.90
53599;DHT22;39485;45.702;11.364;2022-11-15T06:09:28;7.30;99.90
53599;DHT22;39485;45.702;11.364;2022-11-15T06:11:53;7.40;99.90
53599;DHT22;39485;45.702;11.364;2022-11-15T06:14:19;7.40;99.90
53599;DHT22;39485;45.702;11.364;2022-11-15T06:16:45;7.30;99.90
53599;DHT22;39485;45.702;11.364;2022-11-15T06:19:11;7.30;99.90
53599;DHT22;39485;45.702;11.364;2022-11-15T06:21:36;7.30;99.90
53599;DHT22;39485;45.702;11.364;2022-11-15T06:24:02;7.30;99.90
53599;DHT22;39485;45.702;11.364;2022-11-15T06:26:28;7.30;99.90
53599;DHT22;39485;45.702;11.364;2022-11-15T06:28:53;7.30;99.90
53599;DHT22;39485;45.702;11.364;2022-11-15T06:31:19;7.30;99.90
53599;DHT22;39485;45.702;11.364;2022-11-15T06:33:46;7.30;99.90
53599;DHT22;39485;45.702;11.364;2022-11-15T06:36:12;7.30;99.90
53599;DHT22;39485;45.702;11.364;2022-11-15T06:38:46;7.30;99.90
53599;DHT22;39485;45.702;11.364;2022-11-15T06:41:13;7.30;99.90
53599;DHT22;39485;45.702;11.364;2022-11-15T06:43:39;7.30;99.90
53599;DHT22;39485;45.702;11.364;2022-11-15T06:46:06;7.30;99.90
53599;DHT22;39485;45.702;11.364;2022-11-15T06:48:33;7.40;99.90
53599;DHT22;39485;45.702;11.364;2022-11-15T06:51:00;7.40;99.90
53599;DHT22;39485;45.702;11.364;2022-11-15T06:53:26;7.40;99.90
53599;DHT22;39485;45.702;11.364;2022-11-15T06:55:52;7.50;99.90
53599;DHT22;39485;45.702;11.364;2022-11-15T06:58:20;7.50;99.90
53599;DHT22;39485;45.702;11.364;2022-11-15T07:00:46;7.60;99.90
53599;DHT22;39485;45.702;11.364;2022-11-15T07:03:11;7.60;99.90
53599;DHT22;39485;45.702;11.364;2022-11-15T07:05:37;7.70;99.90
53599;DHT22;39485;45.702;11.364;2022-11-15T07:08:03;7.80;99.90
53599;DHT22;39485;45.702;11.364;2022-11-15T07:10:29;7.80;99.90
53599;DHT22;39485;45.702;11.364;2022-11-15T07:12:55;7.80;99.90
53599;DHT22;39485;45.702;11.364;2022-11-15T07:15:23;7.90;99.90
53599;DHT22;39485;45.702;11.364;2022-11-15T07:17:49;7.90;99.90
53599;DHT22;39485;45.702;11.364;2022-11-15T07:20:15;7.90;99.90
53599;DHT22;39485;45.702;11.364;2022-11-15T07:22:41;8.00;99.90
53599;DHT22;39485;45.702;11.364;2022-11-15T07:25:07;8.00;99.90
53599;DHT22;39485;45.702;11.364;2022-11-15T07:27:33;8.10;99.90
53599;DHT22;39485;45.702;11.364;2022-11-15T07:29:59;8.10;99.90
53599;DHT22;39485;45.702;11.364;2022-11-15T07:32:25;8.20;99.90
53599;DHT22;39485;45.702;11.364;2022-11-15T07:34:51;8.30;99.90
53599;DHT22;39485;45.702;11.364;2022-11-15T07:37:16;8.30;99.90
53599;DHT22;39485;45.702;11.364;2022-11-15T07:39:42;8.40;99.90
53599;DHT22;39485;45.702;11.364;2022-11-15T07:42:08;8.50;99.90
53599;DHT22;39485;45.702;11.364;2022-11-15T07:44:52;8.60;99.90
53599;DHT22;39485;45.702;11.364;2022-11-15T07:47:18;8.60;99.90
53599;DHT22;39485;45.702;11.364;2022-11-15T07:49:44;8.70;99.90
53599;DHT22;39485;45.702;11.364;2022-11-15T07:52:11;8.80;99.90
53599;DHT22;39485;45.702;11.364;2022-11-15T07:54:37;8.90;99.90
53599;DHT22;39485;45.702;11.364;2022-11-15T07:57:03;9.00;99.90
53599;DHT22;39485;45.702;11.364;2022-11-15T07:59:28;9.00;99.90
53599;DHT22;39485;45.702;11.364;2022-11-15T08:01:54;9.10;99.90
53599;DHT22;39485;45.702;11.364;2022-11-15T08:04:20;9.20;99.90
53599;DHT22;39485;45.702;11.364;2022-11-15T08:06:45;9.30;99.90
53599;DHT22;39485;45.702;11.364;2022-11-15T08:09:11;9.40;99.90
53599;DHT22;39485;45.702;11.364;2022-11-15T08:11:37;9.50;99.90
53599;DHT22;39485;45.702;11.364;2022-11-15T08:14:02;9.60;99.90
53599;DHT22;39485;45.702;11.364;2022-11-15T08:16:28;9.80;99.90
53599;DHT22;39485;45.702;11.364;2022-11-15T08:18:54;9.80;99.90
53599;DHT22;39485;45.702;11.364;2022-11-15T08:21:21;9.90;99.90
53599;DHT22;39485;45.702;11.364;2022-11-15T08:23:47;10.00;99.90
53599;DHT22;39485;45.702;11.364;2022-11-15T08:26:13;10.10;99.90
53599;DHT22;39485;45.702;11.364;2022-11-15T08:28:38;10.10;99.90
53599;DHT22;39485;45.702;11.364;2022-11-15T08:31:04;10.10;99.90
53599;DHT22;39485;45.702;11.364;2022-11-15T08:33:31;10.20;99.90
53599;DHT22;39485;45.702;11.364;2022-11-15T08:35:59;10.20;99.90
53599;DHT22;39485;45.702;11.364;2022-11-15T08:38:25;10.30;99.90
53599;DHT22;39485;45.702;11.364;2022-11-15T08:41:01;10.30;99.90
53599;DHT22;39485;45.702;11.364;2022-11-15T08:43:27;10.30;99.90
53599;DHT22;39485;45.702;11.364;2022-11-15T08:45:56;10.30;99.90
53599;DHT22;39485;45.702;11.364;2022-11-15T08:48:22;10.30;99.90
53599;DHT22;39485;45.702;11.364;2022-11-15T08:50:48;10.40;99.90
53599;DHT22;39485;45.702;11.364;2022-11-15T08:53:13;10.40;99.90
53599;DHT22;39485;45.702;11.364;2022-11-15T08:55:39;10.40;99.90
53599;DHT22;39485;45.702;11.364;2022-11-15T08:58:06;10.40;99.90
53599;DHT22;39485;45.702;11.364;2022-11-15T09:00:32;10.40;99.90
53599;DHT22;39485;45.702;11.364;2022-11-15T09:02:58;10.40;99.90
53599;DHT22;39485;45.702;11.364;2022-11-15T09:05:25;10.40;99.90
53599;DHT22;39485;45.702;11.364;2022-11-15T09:07:54;10.50;99.90
53599;DHT22;39485;45.702;11.364;2022-11-15T16:18:04;10.80;99.90
53599;DHT22;39485;45.702;11.364;2022-11-15T16:22:57;10.80;99.90
53599;DHT22;39485;45.702;11.364;2022-11-15T16:25:24;10.80;99.90
53599;DHT22;39485;45.702;11.364;2022-11-15T16:27:50;10.80;99.90
53599;DHT22;39485;45.702;11.364;2022-11-15T16:30:18;10.70;99.90
53599;DHT22;39485;45.702;11.364;2022-11-15T16:32:44;10.70;99.90
53599;DHT22;39485;45.702;11.364;2022-11-15T16:35:11;10.70;99.90
53599;DHT22;39485;45.702;11.364;2022-11-15T16:37:38;10.70;99.90
53599;DHT22;39485;45.702;11.364;2022-11-15T16:40:29;10.60;99.90
53599;DHT22;39485;45.702;11.364;2022-11-15T16:42:57;10.60;99.90
53599;DHT22;39485;45.702;11.364;2022-11-15T16:45:23;10.60;99.90
53599;DHT22;39485;45.702;11.364;2022-11-15T16:47:50;10.60;99.90
53599;DHT22;39485;45.702;11.364;2022-11-15T16:50:27;10.60;99.90
53599;DHT22;39485;45.702;11.364;2022-11-15T16:52:55;10.50;99.90
53599;DHT22;39485;45.702;11.364;2022-11-15T16:55:24;10.50;99.90
53599;DHT22;39485;45.702;11.364;2022-11-15T18:32:21;10.40;99.90
53599;DHT22;39485;45.702;11.364;2022-11-15T18:34:48;10.40;99.90
53599;DHT22;39485;45.702;11.364;2022-11-15T18:37:15;10.40;99.90
53599;DHT22;39485;45.702;11.364;2022-11-15T18:39:41;10.40;99.90
53599;DHT22;39485;45.702;11.364;2022-11-15T18:42:07;10.40;99.90
53599;DHT22;39485;45.702;11.364;2022-11-15T18:44:33;10.40;99.90
53599;DHT22;39485;45.702;11.364;2022-11-15T18:46:59;10.40;99.90
53599;DHT22;39485;45.702;11.364;2022-11-15T18:49:25;10.40;99.90
53599;DHT22;39485;45.702;11.364;2022-11-15T18:51:50;10.40;99.90
53599;DHT22;39485;45.702;11.364;2022-11-15T18:54:16;10.40;99.90
53599;DHT22;39485;45.702;11.364;2022-11-15T18:56:42;10.40;99.90
53599;DHT22;39485;45.702;11.364;2022-11-15T18:59:09;10.40;99.90
53599;DHT22;39485;45.702;11.364;2022-11-15T19:01:37;10.40;99.90
53599;DHT22;39485;45.702;11.364;2022-11-15T19:04:06;10.40;99.90
53599;DHT22;39485;45.702;11.364;2022-11-15T19:06:35;10.40;99.90
53599;DHT22;39485;45.702;11.364;2022-11-15T19:09:00;10.40;99.90
53599;DHT22;39485;45.702;11.364;2022-11-15T19:11:31;10.40;99.90
53599;DHT22;39485;45.702;11.364;2022-11-15T19:13:58;10.40;99.90
53599;DHT22;39485;45.702;11.364;2022-11-15T19:16:25;10.40;99.90
53599;DHT22;39485;45.702;11.364;2022-11-15T19:18:53;10.40;99.90
53599;DHT22;39485;45.702;11.364;2022-11-15T19:21:19;10.30;99.90
53599;DHT22;39485;45.702;11.364;2022-11-15T19:23:45;10.30;99.90
53599;DHT22;39485;45.702;11.364;2022-11-15T19:26:12;10.20;99.90
53599;DHT22;39485;45.702;11.364;2022-11-15T19:28:40;10.30;99.90
53599;DHT22;39485;45.702;11.364;2022-11-15T19:31:14;10.20;99.90
53599;DHT22;39485;45.702;11.364;2022-11-15T19:33:41;10.20;99.90
53599;DHT22;39485;45.702;11.364;2022-11-15T19:36:14;10.20;99.90
53599;DHT22;39485;45.702;11.364;2022-11-15T19:38:41;10.20;99.90
53599;DHT22;39485;45.702;11.364;2022-11-15T19:41:10;10.10;99.90
53599;DHT22;39485;45.702;11.364;2022-11-15T19:43:36;10.10;99.90
53599;DHT22;39485;45.702;11.364;2022-11-15T19:46:04;10.10;99.90
53599;DHT22;39485;45.702;11.364;2022-11-15T19:48:31;10.10;99.90
53599;DHT22;39485;45.702;11.364;2022-11-15T19:51:01;10.10;99.90
53599;DHT22;39485;45.702;11.364;2022-11-15T19:53:29;10.10;99.90
53599;DHT22;39485;45.702;11.364;2022-11-15T19:56:00;10.10;99.90
53599;DHT22;39485;45.702;11.364;2022-11-15T19:58:26;10.10;99.90
53599;DHT22;39485;45.702;11.364;2022-11-15T20:01:03;10.10;99.90
53599;DHT22;39485;45.702;11.364;2022-11-15T20:03:30;10.10;99.90
53599;DHT22;39485;45.702;11.364;2022-11-15T20:06:04;10.00;99.90
53599;DHT22;39485;45.702;11.364;2022-11-15T20:08:31;10.10;99.90
53599;DHT22;39485;45.702;11.364;2022-11-15T20:10:57;10.10;99.90
53599;DHT22;39485;45.702;11.364;2022-11-15T20:13:23;10.00;99.90
53599;DHT22;39485;45.702;11.364;2022-11-15T20:15:49;10.00;99.90
53599;DHT22;39485;45.702;11.364;2022-11-15T20:18:16;10.10;99.90
53599;DHT22;39485;45.702;11.364;2022-11-15T20:20:42;10.10;99.90
53599;DHT22;39485;45.702;11.364;2022-11-15T20:23:08;10.00;99.90
53599;DHT22;39485;45.702;11.364;2022-11-15T20:25:34;10.10;99.90
53599;DHT22;39485;45.702;11.364;2022-11-15T20:28:04;10.00;99.90
53599;DHT22;39485;45.702;11.364;2022-11-15T20:30:31;10.00;99.90
53599;DHT22;39485;45.702;11.364;2022-11-15T20:32:56;10.00;99.90
53599;DHT22;39485;45.702;11.364;2022-11-15T20:35:22;10.10;99.90
53599;DHT22;39485;45.702;11.364;2022-11-15T20:37:48;10.10;99.90
53599;DHT22;39485;45.702;11.364;2022-11-15T20:40:14;10.10;99.90
53599;DHT22;39485;45.702;11.364;2022-11-15T20:42:39;10.00;99.90
53599;DHT22;39485;45.702;11.364;2022-11-15T20:45:05;10.00;99.90
53599;DHT22;39485;45.702;11.364;2022-11-15T20:47:31;10.00;99.90
53599;DHT22;39485;45.702;11.364;2022-11-15T20:49:57;10.10;99.90
53599;DHT22;39485;45.702;11.364;2022-11-15T20:52:22;10.10;99.90
53599;DHT22;39485;45.702;11.364;2022-11-15T20:54:48;10.00;99.90
53599;DHT22;39485;45.702;11.364;2022-11-15T20:57:14;10.00;99.90
53599;DHT22;39485;45.702;11.364;2022-11-15T20:59:39;10.00;99.90
53599;DHT22;39485;45.702;11.364;2022-11-15T21:02:05;10.10;99.90
53599;DHT22;39485;45.702;11.364;2022-11-15T21:04:31;10.10;99.90
53599;DHT22;39485;45.702;11.364;2022-11-15T21:06:56;10.00;99.90
53599;DHT22;39485;45.702;11.364;2022-11-15T21:09:23;10.00;99.90
53599;DHT22;39485;45.702;11.364;2022-11-15T21:12:11;10.00;99.90
53599;DHT22;39485;45.702;11.364;2022-11-15T21:14:41;10.00;99.90
53599;DHT22;39485;45.702;11.364;2022-11-15T21:17:08;10.00;99.90
53599;DHT22;39485;45.702;11.364;2022-11-15T21:19:35;10.00;99.90
53599;DHT22;39485;45.702;11.364;2022-11-15T21:22:01;10.00;99.90
53599;DHT22;39485;45.702;11.364;2022-11-15T21:24:27;10.10;99.90
53599;DHT22;39485;45.702;11.364;2022-11-15T21:26:53;10.00;99.90
53599;DHT22;39485;45.702;11.364;2022-11-15T21:29:19;10.00;99.90
53599;DHT22;39485;45.702;11.364;2022-11-15T21:31:47;10.00;99.90
53599;DHT22;39485;45.702;11.364;2022-11-15T21:34:13;10.00;99.90
53599;DHT22;39485;45.702;11.364;2022-11-15T21:36:39;10.00;99.90
53599;DHT22;39485;45.702;11.364;2022-11-15T21:39:05;10.00;99.90
53599;DHT22;39485;45.702;11.364;2022-11-15T21:41:31;10.00;99.90
53599;DHT22;39485;45.702;11.364;2022-11-15T21:44:01;10.00;99.90
53599;DHT22;39485;45.702;11.364;2022-11-15T21:46:28;10.00;99.90
53599;DHT22;39485;45.702;11.364;2022-11-15T21:48:54;10.10;99.90
53599;DHT22;39485;45.702;11.364;2022-11-15T21:51:20;10.00;99.90
53599;DHT22;39485;45.702;11.364;2022-11-15T21:53:46;10.10;99.90
53599;DHT22;39485;45.702;11.364;2022-11-15T21:56:12;10.00;99.90
53599;DHT22;39485;45.702;11.364;2022-11-15T21:58:38;10.00;99.90
53599;DHT22;39485;45.702;11.364;2022-11-15T22:01:04;10.10;99.90
53599;DHT22;39485;45.702;11.364;2022-11-15T22:03:49;10.00;99.90
53599;DHT22;39485;45.702;11.364;2022-11-15T22:06:15;10.00;99.90
53599;DHT22;39485;45.702;11.364;2022-11-15T22:08:41;10.00;99.90
53599;DHT22;39485;45.702;11.364;2022-11-15T22:11:07;10.10;99.90
53599;DHT22;39485;45.702;11.364;2022-11-15T22:13:33;10.00;99.90
53599;DHT22;39485;45.702;11.364;2022-11-15T22:15:59;10.00;99.90
53599;DHT22;39485;45.702;11.364;2022-11-15T22:18:25;10.00;99.90
53599;DHT22;39485;45.702;11.364;2022-11-15T22:20:59;10.00;99.90
53599;DHT22;39485;45.702;11.364;2022-11-15T22:23:26;10.00;99.90
53599;DHT22;39485;45.702;11.364;2022-11-15T22:25:52;10.00;99.90
53599;DHT22;39485;45.702;11.364;2022-11-15T22:28:18;10.00;99.90
53599;DHT22;39485;45.702;11.364;2022-11-15T22:30:48;10.00;99.90
53599;DHT22;39485;45.702;11.364;2022-11-15T22:33:15;10.00;99.90
53599;DHT22;39485;45.702;11.364;2022-11-15T22:35:42;10.00;99.90
53599;DHT22;39485;45.702;11.364;2022-11-15T22:38:08;10.00;99.90
53599;DHT22;39485;45.702;11.364;2022-11-15T22:40:35;10.00;99.90
53599;DHT22;39485;45.702;11.364;2022-11-15T22:43:01;10.00;99.90
53599;DHT22;39485;45.702;11.364;2022-11-15T22:45:27;10.00;99.90
53599;DHT22;39485;45.702;11.364;2022-11-15T22:47:52;10.00;99.90
53599;DHT22;39485;45.702;11.364;2022-11-15T22:50:18;10.00;99.90
53599;DHT22;39485;45.702;11.364;2022-11-15T22:52:44;10.00;99.90
53599;DHT22;39485;45.702;11.364;2022-11-15T22:55:09;10.00;99.90
53599;DHT22;39485;45.702;11.364;2022-11-15T22:57:35;9.90;99.90
53599;DHT22;39485;45.702;11.364;2022-11-15T23:00:05;10.00;99.90
53599;DHT22;39485;45.702;11.364;2022-11-15T23:02:34;10.00;99.90
53599;DHT22;39485;45.702;11.364;2022-11-15T23:05:00;10.00;99.90
53599;DHT22;39485;45.702;11.364;2022-11-15T23:07:26;10.00;99.90
53599;DHT22;39485;45.702;11.364;2022-11-15T23:09:52;10.00;99.90
53599;DHT22;39485;45.702;11.364;2022-11-15T23:12:20;10.10;99.90
53599;DHT22;39485;45.702;11.364;2022-11-15T23:15:05;10.10;99.90
53599;DHT22;39485;45.702;11.364;2022-11-15T23:17:30;10.10;99.90
53599;DHT22;39485;45.702;11.364;2022-11-15T23:19:56;10.10;99.90
53599;DHT22;39485;45.702;11.364;2022-11-15T23:22:22;10.10;99.90
53599;DHT22;39485;45.702;11.364;2022-11-15T23:25:07;10.10;99.90
53599;DHT22;39485;45.702;11.364;2022-11-15T23:27:32;10.10;99.90
53599;DHT22;39485;45.702;11.364;2022-11-15T23:29:58;10.10;99.90
53599;DHT22;39485;45.702;11.364;2022-11-15T23:32:42;10.10;99.90
53599;DHT22;39485;45.702;11.364;2022-11-15T23:35:26;10.10;99.90
53599;DHT22;39485;45.702;11.364;2022-11-15T23:37:52;10.10;99.90
53599;DHT22;39485;45.702;11.364;2022-11-15T23:40:18;10.10;99.90
53599;DHT22;39485;45.702;11.364;2022-11-15T23:42:44;10.10;99.90
53599;DHT22;39485;45.702;11.364;2022-11-15T23:45:10;10.10;99.90
53599;DHT22;39485;45.702;11.364;2022-11-15T23:47:35;10.10;99.90
53599;DHT22;39485;45.702;11.364;2022-11-15T23:50:01;10.10;99.90
53599;DHT22;39485;45.702;11.364;2022-11-15T23:52:27;10.10;99.90
53599;DHT22;39485;45.702;11.364;2022-11-15T23:54:53;10.10;99.90
53599;DHT22;39485;45.702;11.364;2022-11-15T23:57:18;10.10;99.90
53599;DHT22;39485;45.702;11.364;2022-11-15T23:59:44;10.10;99.90
